Du har inga inställningar för hoppväder.nu

Hoppväder.nu

Senast uppdaterat 02:16

UTC-tid

2018-01-17 kl. 01:16


Sol och måne

Solen går upp 8:17 och går ner 15:51 (beräknade cirkatider)
Nästa fullmåne blir om 14 dagar (2018-01-31)

METAR

ESMQ (Kalmar)
(26 minuter sedan)
ESMQ 170050Z 16003KT 8000 BR OVC002 01/01 Q0984=



ESMX (Växjö)
(26 minuter sedan)
ESMX 170050Z 13004KT 2200 -PL BKN003 00/00 Q0982=



ESMK (Ronneby)
(26 minuter sedan)
ESMK 170050Z AUTO 24003KT 9999 BKN013/// 02/02 Q0984=



ESSV (Visby)
(26 minuter sedan)
ESSV 170050Z AUTO 14016KT 4200 -SN OVC006/// M01/M01 Q0986 REFZUP=






TAF

ESMQ (Kalmar)
(136 minuter sedan)
ESMQ 162300Z NIL=



ESMX (Växjö)
(106 minuter sedan)
ESMX 162330Z 1700/1702 14006KT 8000 BKN002 TEMPO 1700/1702 1400 SN BR BKN005=



ESMK (Ronneby)
(136 minuter sedan)
ESMK 162300Z NIL=



ESSV (Visby)
(286 minuter sedan)
ESSV 162030Z 1621/1623 15016KT 2500 -SN BKN006 TEMPO 1621/1623 5000 -SNRA BKN015=





Kodnycklar till TAF och METAR






LHP

(Borglanda är område K1a i Sydöstra delen)

Prognos är inte uppdaterad




Spotting

Hur fungerar spotthjälpen och Vindkartan?

Markvind är ca 0 m/s.



Vindkartan

Senast uppdaterad 02:16



All data kommer från LFV.se